sensor_id;sensor_type;location;lat;lon;timestamp;pressure;altitude;pressure_sealevel;temperature;humidity
16690;BME280;8458;52.220;9.884;2023-04-25T00:01:03;99873.09;;;7.41;92.80
16690;BME280;8458;52.220;9.884;2023-04-25T00:03:30;99877.44;;;7.36;92.71
16690;BME280;8458;52.220;9.884;2023-04-25T00:05:58;99874.13;;;7.34;92.99
16690;BME280;8458;52.220;9.884;2023-04-25T00:08:27;99874.66;;;7.31;92.47
16690;BME280;8458;52.220;9.884;2023-04-25T00:10:53;99877.44;;;7.36;92.02
16690;BME280;8458;52.220;9.884;2023-04-25T00:13:20;99871.84;;;7.26;92.24
16690;BME280;8458;52.220;9.884;2023-04-25T00:15:47;99877.06;;;7.23;92.19
16690;BME280;8458;52.220;9.884;2023-04-25T00:18:13;99871.84;;;7.26;92.19
16690;BME280;8458;52.220;9.884;2023-04-25T00:20:40;99873.81;;;7.31;91.86
16690;BME280;8458;52.220;9.884;2023-04-25T00:23:10;99877.44;;;7.36;91.64
16690;BME280;8458;52.220;9.884;2023-04-25T00:25:37;99874.19;;;7.45;91.34
16690;BME280;8458;52.220;9.884;2023-04-25T00:28:03;99879.94;;;7.38;91.14
16690;BME280;8458;52.220;9.884;2023-04-25T00:30:30;99888.53;;;7.42;91.28
16690;BME280;8458;52.220;9.884;2023-04-25T00:32:56;99880.34;;;7.52;91.32
16690;BME280;8458;52.220;9.884;2023-04-25T00:35:23;99873.66;;;7.48;90.58
16690;BME280;8458;52.220;9.884;2023-04-25T00:37:49;99878.91;;;7.44;89.96
16690;BME280;8458;52.220;9.884;2023-04-25T00:40:17;99884.66;;;7.38;90.50
16690;BME280;8458;52.220;9.884;2023-04-25T00:42:44;99887.59;;;7.31;90.83
16690;BME280;8458;52.220;9.884;2023-04-25T00:45:13;99879.66;;;7.34;91.55
16690;BME280;8458;52.220;9.884;2023-04-25T00:47:40;99876.69;;;7.46;91.58
16690;BME280;8458;52.220;9.884;2023-04-25T00:50:08;99881.63;;;7.39;91.52
16690;BME280;8458;52.220;9.884;2023-04-25T00:52:35;99872.16;;;7.30;91.87
16690;BME280;8458;52.220;9.884;2023-04-25T00:55:02;99877.88;;;7.23;92.49
16690;BME280;8458;52.220;9.884;2023-04-25T00:57:31;99875.72;;;7.25;93.19
16690;BME280;8458;52.220;9.884;2023-04-25T00:59:58;99881.53;;;7.29;93.25
16690;BME280;8458;52.220;9.884;2023-04-25T01:02:25;99874.03;;;7.24;93.45
16690;BME280;8458;52.220;9.884;2023-04-25T01:04:52;99869.56;;;7.18;93.28
16690;BME280;8458;52.220;9.884;2023-04-25T01:07:19;99870.09;;;7.15;93.95
16690;BME280;8458;52.220;9.884;2023-04-25T01:09:46;99874.78;;;7.14;94.13
16690;BME280;8458;52.220;9.884;2023-04-25T01:12:12;99868.41;;;7.14;94.39
16690;BME280;8458;52.220;9.884;2023-04-25T01:14:41;99867.31;;;7.10;94.46
16690;BME280;8458;52.220;9.884;2023-04-25T01:17:08;99864.47;;;7.05;94.36
16690;BME280;8458;52.220;9.884;2023-04-25T01:19:34;99867.81;;;7.07;94.99
16690;BME280;8458;52.220;9.884;2023-04-25T01:22:03;99874.41;;;7.06;95.13
16690;BME280;8458;52.220;9.884;2023-04-25T01:24:31;99870.31;;;7.08;95.09
16690;BME280;8458;52.220;9.884;2023-04-25T01:26:58;99866.13;;;7.00;95.45
16690;BME280;8458;52.220;9.884;2023-04-25T01:29:27;99871.56;;;6.95;96.06
16690;BME280;8458;52.220;9.884;2023-04-25T01:31:53;99868.28;;;6.98;96.20
16690;BME280;8458;52.220;9.884;2023-04-25T01:34:20;99866.03;;;6.95;96.48
16690;BME280;8458;52.220;9.884;2023-04-25T01:36:48;99872.94;;;6.93;97.69
16690;BME280;8458;52.220;9.884;2023-04-25T01:39:17;99868.53;;;6.97;97.74
16690;BME280;8458;52.220;9.884;2023-04-25T01:41:44;99866.91;;;6.96;98.30
16690;BME280;8458;52.220;9.884;2023-04-25T01:44:11;99873.22;;;6.96;98.65
16690;BME280;8458;52.220;9.884;2023-04-25T01:46:37;99881.53;;;7.02;98.61
16690;BME280;8458;52.220;9.884;2023-04-25T01:49:05;99880.94;;;6.94;98.81
16690;BME280;8458;52.220;9.884;2023-04-25T01:51:31;99880.41;;;6.97;99.43
16690;BME280;8458;52.220;9.884;2023-04-25T01:53:58;99876.03;;;7.02;99.57
16690;BME280;8458;52.220;9.884;2023-04-25T01:56:30;99880.97;;;6.99;99.65
16690;BME280;8458;52.220;9.884;2023-04-25T01:58:56;99883.72;;;6.99;99.71
16690;BME280;8458;52.220;9.884;2023-04-25T02:01:23;99887.91;;;7.02;100.00
16690;BME280;8458;52.220;9.884;2023-04-25T02:03:50;99880.50;;;7.08;100.00
16690;BME280;8458;52.220;9.884;2023-04-25T02:06:16;99890.41;;;7.04;99.95
16690;BME280;8458;52.220;9.884;2023-04-25T02:08:43;99879.91;;;7.00;99.71
16690;BME280;8458;52.220;9.884;2023-04-25T02:11:09;99885.66;;;6.99;99.93
16690;BME280;8458;52.220;9.884;2023-04-25T02:13:37;99886.22;;;7.01;99.97
16690;BME280;8458;52.220;9.884;2023-04-25T02:16:04;99883.72;;;6.99;100.00
16690;BME280;8458;52.220;9.884;2023-04-25T02:18:30;99895.84;;;6.98;100.00
16690;BME280;8458;52.220;9.884;2023-04-25T02:20:58;99896.94;;;6.97;100.00
16690;BME280;8458;52.220;9.884;2023-04-25T02:23:26;99896.31;;;6.90;100.00
16690;BME280;8458;52.220;9.884;2023-04-25T02:25:52;99895.25;;;6.91;100.00
16690;BME280;8458;52.220;9.884;2023-04-25T02:28:20;99888.84;;;6.86;100.00
16690;BME280;8458;52.220;9.884;2023-04-25T02:30:48;99894.66;;;6.89;100.00
16690;BME280;8458;52.220;9.884;2023-04-25T02:33:14;99890.16;;;6.83;100.00
16690;BME280;8458;52.220;9.884;2023-04-25T02:35:43;99902.81;;;6.79;100.00
16690;BME280;8458;52.220;9.884;2023-04-25T02:38:09;99900.06;;;6.79;100.00
16690;BME280;8458;52.220;9.884;2023-04-25T02:40:36;99900.00;;;6.74;100.00
16690;BME280;8458;52.220;9.884;2023-04-25T02:43:02;99897.75;;;6.71;100.00
16690;BME280;8458;52.220;9.884;2023-04-25T02:45:28;99903.59;;;6.74;100.00
16690;BME280;8458;52.220;9.884;2023-04-25T02:47:56;99904.41;;;6.75;100.00
16690;BME280;8458;52.220;9.884;2023-04-25T02:50:23;99902.97;;;6.67;100.00
16690;BME280;8458;52.220;9.884;2023-04-25T02:52:49;99909.50;;;6.61;100.00
16690;BME280;8458;52.220;9.884;2023-04-25T02:55:16;99912.50;;;6.59;100.00
16690;BME280;8458;52.220;9.884;2023-04-25T02:57:42;99919.19;;;6.63;100.00
16690;BME280;8458;52.220;9.884;2023-04-25T03:00:09;99935.72;;;6.63;100.00
16690;BME280;8458;52.220;9.884;2023-04-25T03:02:39;99924.69;;;6.63;100.00
16690;BME280;8458;52.220;9.884;2023-04-25T03:05:07;99926.94;;;6.67;100.00
16690;BME280;8458;52.220;9.884;2023-04-25T03:07:34;99925.47;;;6.59;100.00
16690;BME280;8458;52.220;9.884;2023-04-25T03:10:00;99931.31;;;6.68;100.00
16690;BME280;8458;52.220;9.884;2023-04-25T03:12:27;99926.34;;;6.64;100.00
16690;BME280;8458;52.220;9.884;2023-04-25T03:14:54;99932.78;;;6.75;100.00
16690;BME280;8458;52.220;9.884;2023-04-25T03:17:20;99925.44;;;6.81;100.00
16690;BME280;8458;52.220;9.884;2023-04-25T03:19:47;99929.88;;;6.82;100.00
16690;BME280;8458;52.220;9.884;2023-04-25T03:22:15;99927.19;;;6.92;100.00
16690;BME280;8458;52.220;9.884;2023-04-25T03:24:41;99936.50;;;6.86;100.00
16690;BME280;8458;52.220;9.884;2023-04-25T03:27:08;99939.06;;;6.93;100.00
16690;BME280;8458;52.220;9.884;2023-04-25T03:29:34;99932.91;;;6.86;100.00
16690;BME280;8458;52.220;9.884;2023-04-25T03:32:01;99942.28;;;6.85;100.00
16690;BME280;8458;52.220;9.884;2023-04-25T03:34:27;99938.75;;;6.89;100.00
16690;BME280;8458;52.220;9.884;2023-04-25T03:36:55;99938.13;;;6.82;100.00
16690;BME280;8458;52.220;9.884;2023-04-25T03:39:22;99944.47;;;6.82;100.00
16690;BME280;8458;52.220;9.884;2023-04-25T03:41:49;99947.59;;;6.91;100.00
16690;BME280;8458;52.220;9.884;2023-04-25T03:44:15;99951.75;;;6.94;100.00
16690;BME280;8458;52.220;9.884;2023-04-25T03:46:42;99957.97;;;6.84;100.00
16690;BME280;8458;52.220;9.884;2023-04-25T03:49:08;99970.59;;;6.80;100.00
16690;BME280;8458;52.220;9.884;2023-04-25T03:51:35;99962.41;;;6.85;100.00
16690;BME280;8458;52.220;9.884;2023-04-25T03:54:01;99968.88;;;6.74;100.00
16690;BME280;8458;52.220;9.884;2023-04-25T03:56:29;99970.03;;;6.78;100.00
16690;BME280;8458;52.220;9.884;2023-04-25T03:58:56;99971.72;;;6.79;100.00
16690;BME280;8458;52.220;9.884;2023-04-25T04:01:22;99972.09;;;6.66;100.00
16690;BME280;8458;52.220;9.884;2023-04-25T04:03:49;99972.28;;;6.59;100.00
16690;BME280;8458;52.220;9.884;2023-04-25T04:06:16;99977.13;;;6.52;100.00
16690;BME280;8458;52.220;9.884;2023-04-25T04:08:43;99981.81;;;6.51;100.00
16690;BME280;8458;52.220;9.884;2023-04-25T04:11:10;99980.81;;;6.57;100.00
16690;BME280;8458;52.220;9.884;2023-04-25T04:13:37;99984.00;;;6.49;100.00
16690;BME280;8458;52.220;9.884;2023-04-25T04:16:04;99990.66;;;6.53;100.00
16690;BME280;8458;52.220;9.884;2023-04-25T04:18:31;99992.84;;;6.51;100.00
16690;BME280;8458;52.220;9.884;2023-04-25T04:20:58;99988.50;;;6.55;100.00
16690;BME280;8458;52.220;9.884;2023-04-25T04:23:24;99991.81;;;6.57;100.00
16690;BME280;8458;52.220;9.884;2023-04-25T04:25:52;99997.84;;;6.54;100.00
16690;BME280;8458;52.220;9.884;2023-04-25T04:28:19;99984.63;;;6.56;100.00
16690;BME280;8458;52.220;9.884;2023-04-25T04:30:47;100000.16;;;6.62;100.00
16690;BME280;8458;52.220;9.884;2023-04-25T04:33:16;99987.44;;;6.61;100.00
16690;BME280;8458;52.220;9.884;2023-04-25T04:35:44;99997.44;;;6.68;100.00
16690;BME280;8458;52.220;9.884;2023-04-25T04:38:11;100000.41;;;6.83;100.00
16690;BME280;8458;52.220;9.884;2023-04-25T04:40:40;100000.81;;;6.70;100.00
16690;BME280;8458;52.220;9.884;2023-04-25T04:43:08;100014.50;;;6.64;100.00
16690;BME280;8458;52.220;9.884;2023-04-25T04:45:35;100008.72;;;6.66;100.00
16690;BME280;8458;52.220;9.884;2023-04-25T04:48:05;100013.91;;;6.62;100.00
16690;BME280;8458;52.220;9.884;2023-04-25T04:50:31;100018.91;;;6.66;100.00
16690;BME280;8458;52.220;9.884;2023-04-25T04:52:59;100022.69;;;6.59;100.00
16690;BME280;8458;52.220;9.884;2023-04-25T04:55:25;100029.03;;;6.60;100.00
16690;BME280;8458;52.220;9.884;2023-04-25T04:57:52;100025.50;;;6.64;100.00
16690;BME280;8458;52.220;9.884;2023-04-25T05:00:18;100033.72;;;6.59;100.00
16690;BME280;8458;52.220;9.884;2023-04-25T05:02:45;100037.63;;;6.63;100.00
16690;BME280;8458;52.220;9.884;2023-04-25T05:05:13;100050.25;;;6.59;99.62
16690;BME280;8458;52.220;9.884;2023-04-25T05:07:40;100046.66;;;6.59;98.50
16690;BME280;8458;52.220;9.884;2023-04-25T05:10:08;100053.22;;;6.75;98.16
16690;BME280;8458;52.220;9.884;2023-04-25T05:12:34;100052.69;;;6.78;97.36
16690;BME280;8458;52.220;9.884;2023-04-25T05:15:01;100058.53;;;6.81;97.48
16690;BME280;8458;52.220;9.884;2023-04-25T05:17:27;100063.47;;;6.79;97.35
16690;BME280;8458;52.220;9.884;2023-04-25T05:19:53;100055.44;;;6.78;97.24
16690;BME280;8458;52.220;9.884;2023-04-25T05:22:22;100059.22;;;6.72;97.05
16690;BME280;8458;52.220;9.884;2023-04-25T05:24:49;100058.41;;;6.71;97.15
16690;BME280;8458;52.220;9.884;2023-04-25T05:27:17;100054.94;;;6.59;96.78
16690;BME280;8458;52.220;9.884;2023-04-25T05:29:43;100062.09;;;6.60;96.48
16690;BME280;8458;52.220;9.884;2023-04-25T05:32:10;100065.75;;;6.66;96.37
16690;BME280;8458;52.220;9.884;2023-04-25T05:34:37;100068.06;;;6.74;95.92
16690;BME280;8458;52.220;9.884;2023-04-25T05:37:03;100070.41;;;6.82;96.25
16690;BME280;8458;52.220;9.884;2023-04-25T05:39:31;100062.56;;;6.74;95.37
16690;BME280;8458;52.220;9.884;2023-04-25T05:41:57;100074.50;;;6.79;94.39
16690;BME280;8458;52.220;9.884;2023-04-25T05:44:24;100083.50;;;6.75;93.93
16690;BME280;8458;52.220;9.884;2023-04-25T05:46:51;100074.03;;;6.66;94.25
16690;BME280;8458;52.220;9.884;2023-04-25T05:49:18;100081.94;;;6.79;94.77
16690;BME280;8458;52.220;9.884;2023-04-25T05:51:44;100089.75;;;6.87;94.04
16690;BME280;8458;52.220;9.884;2023-04-25T05:54:10;100089.25;;;6.90;92.43
16690;BME280;8458;52.220;9.884;2023-04-25T05:56:38;100096.44;;;6.91;90.85
16690;BME280;8458;52.220;9.884;2023-04-25T05:59:05;100092.00;;;6.90;89.73
16690;BME280;8458;52.220;9.884;2023-04-25T06:01:31;100093.00;;;6.84;87.93
16690;BME280;8458;52.220;9.884;2023-04-25T06:03:58;100103.59;;;6.92;88.45
16690;BME280;8458;52.220;9.884;2023-04-25T06:06:24;100102.44;;;6.88;87.17
16690;BME280;8458;52.220;9.884;2023-04-25T06:08:52;100104.09;;;6.89;87.44
16690;BME280;8458;52.220;9.884;2023-04-25T06:11:18;100116.81;;;6.90;85.91
16690;BME280;8458;52.220;9.884;2023-04-25T06:13:46;100112.31;;;6.84;85.59
16690;BME280;8458;52.220;9.884;2023-04-25T06:16:12;100116.25;;;6.88;85.78
16690;BME280;8458;52.220;9.884;2023-04-25T06:18:39;100118.38;;;6.86;85.69
16690;BME280;8458;52.220;9.884;2023-04-25T06:21:06;100123.38;;;6.89;85.95
16690;BME280;8458;52.220;9.884;2023-04-25T06:23:33;100120.63;;;6.89;85.84
16690;BME280;8458;52.220;9.884;2023-04-25T06:25:59;100126.16;;;6.89;85.63
16690;BME280;8458;52.220;9.884;2023-04-25T06:28:26;100123.75;;;6.93;85.96
16690;BME280;8458;52.220;9.884;2023-04-25T06:30:53;100123.13;;;6.91;83.68
16690;BME280;8458;52.220;9.884;2023-04-25T06:33:20;100124.50;;;6.88;83.20
16690;BME280;8458;52.220;9.884;2023-04-25T06:35:47;100134.00;;;6.97;83.84
16690;BME280;8458;52.220;9.884;2023-04-25T06:38:13;100142.88;;;6.82;83.13
16690;BME280;8458;52.220;9.884;2023-04-25T06:40:40;100139.09;;;6.89;83.09
16690;BME280;8458;52.220;9.884;2023-04-25T06:43:06;100144.81;;;6.82;80.82
16690;BME280;8458;52.220;9.884;2023-04-25T06:45:33;100137.19;;;6.89;80.67
16690;BME280;8458;52.220;9.884;2023-04-25T06:48:00;100138.41;;;6.98;81.40
16690;BME280;8458;52.220;9.884;2023-04-25T06:50:27;100141.88;;;7.11;81.85
16690;BME280;8458;52.220;9.884;2023-04-25T06:52:53;100136.56;;;7.26;82.10
16690;BME280;8458;52.220;9.884;2023-04-25T06:55:20;100135.53;;;7.32;79.90
16690;BME280;8458;52.220;9.884;2023-04-25T06:57:46;100125.16;;;7.40;79.80
16690;BME280;8458;52.220;9.884;2023-04-25T07:00:14;100142.09;;;7.48;78.92
16690;BME280;8458;52.220;9.884;2023-04-25T07:02:40;100132.81;;;7.54;79.22
16690;BME280;8458;52.220;9.884;2023-04-25T07:05:10;100139.88;;;7.72;78.95
16690;BME280;8458;52.220;9.884;2023-04-25T07:07:36;100144.44;;;7.62;74.78
16690;BME280;8458;52.220;9.884;2023-04-25T07:10:03;100150.81;;;7.62;72.64
16690;BME280;8458;52.220;9.884;2023-04-25T07:12:30;100142.59;;;7.67;73.57
16690;BME280;8458;52.220;9.884;2023-04-25T07:14:57;100152.59;;;7.74;74.79
16690;BME280;8458;52.220;9.884;2023-04-25T07:17:23;100161.44;;;7.76;75.16
16690;BME280;8458;52.220;9.884;2023-04-25T07:19:50;100151.88;;;7.83;74.01
16690;BME280;8458;52.220;9.884;2023-04-25T07:22:18;100157.72;;;7.87;73.37
16690;BME280;8458;52.220;9.884;2023-04-25T07:24:44;100159.88;;;7.85;73.75
16690;BME280;8458;52.220;9.884;2023-04-25T07:27:13;100167.09;;;7.86;72.60
16690;BME280;8458;52.220;9.884;2023-04-25T07:29:40;100158.53;;;7.87;72.81
16690;BME280;8458;52.220;9.884;2023-04-25T07:32:07;100163.81;;;7.89;72.37
16690;BME280;8458;52.220;9.884;2023-04-25T07:34:33;100165.41;;;7.85;71.70
16690;BME280;8458;52.220;9.884;2023-04-25T07:37:02;100171.56;;;7.92;72.90
16690;BME280;8458;52.220;9.884;2023-04-25T07:39:30;100169.28;;;7.84;71.69
16690;BME280;8458;52.220;9.884;2023-04-25T07:41:56;100164.28;;;7.81;70.71
16690;BME280;8458;52.220;9.884;2023-04-25T07:44:23;100169.03;;;7.63;69.87
16690;BME280;8458;52.220;9.884;2023-04-25T07:46:51;100167.56;;;7.56;71.40
16690;BME280;8458;52.220;9.884;2023-04-25T07:49:17;100176.75;;;7.61;72.18
16690;BME280;8458;52.220;9.884;2023-04-25T07:51:43;100170.50;;;7.71;72.63
16690;BME280;8458;52.220;9.884;2023-04-25T07:54:13;100179.88;;;7.70;71.32
16690;BME280;8458;52.220;9.884;2023-04-25T07:56:41;100180.72;;;7.70;72.35
16690;BME280;8458;52.220;9.884;2023-04-25T07:59:08;100179.25;;;7.63;72.73
16690;BME280;8458;52.220;9.884;2023-04-25T08:01:34;100185.53;;;7.58;73.98
16690;BME280;8458;52.220;9.884;2023-04-25T08:04:01;100188.81;;;7.55;73.62
16690;BME280;8458;52.220;9.884;2023-04-25T08:06:27;100192.03;;;7.47;70.60
16690;BME280;8458;52.220;9.884;2023-04-25T08:08:54;100192.44;;;7.39;68.46
16690;BME280;8458;52.220;9.884;2023-04-25T08:11:20;100195.81;;;7.41;69.02
16690;BME280;8458;52.220;9.884;2023-04-25T08:13:48;100191.00;;;7.53;69.77
16690;BME280;8458;52.220;9.884;2023-04-25T08:16:15;100202.03;;;7.53;70.73
16690;BME280;8458;52.220;9.884;2023-04-25T08:18:41;100206.59;;;7.64;71.59
16690;BME280;8458;52.220;9.884;2023-04-25T08:21:08;100215.81;;;7.75;72.05
16690;BME280;8458;52.220;9.884;2023-04-25T08:23:36;100215.50;;;7.71;69.63
16690;BME280;8458;52.220;9.884;2023-04-25T08:26:03;100221.34;;;7.75;69.91
16690;BME280;8458;52.220;9.884;2023-04-25T08:28:29;100215.81;;;7.75;70.14
16690;BME280;8458;52.220;9.884;2023-04-25T08:30:57;100208.97;;;7.78;69.70
16690;BME280;8458;52.220;9.884;2023-04-25T08:33:24;100226.03;;;7.75;69.03
16690;BME280;8458;52.220;9.884;2023-04-25T08:35:50;100217.16;;;7.72;68.52
16690;BME280;8458;52.220;9.884;2023-04-25T08:38:17;100221.47;;;7.85;68.43
16690;BME280;8458;52.220;9.884;2023-04-25T08:40:49;100227.09;;;7.96;63.92
16690;BME280;8458;52.220;9.884;2023-04-25T08:43:18;100228.69;;;8.14;60.55
16690;BME280;8458;52.220;9.884;2023-04-25T08:45:45;100232.22;;;8.36;61.14
16690;BME280;8458;52.220;9.884;2023-04-25T08:48:15;100248.41;;;8.50;60.72
16690;BME280;8458;52.220;9.884;2023-04-25T08:50:45;100235.81;;;8.64;62.00
16690;BME280;8458;52.220;9.884;2023-04-25T08:53:16;100242.50;;;8.68;62.12
16690;BME280;8458;52.220;9.884;2023-04-25T08:55:45;100246.81;;;8.86;60.08
16690;BME280;8458;52.220;9.884;2023-04-25T08:58:12;100244.31;;;8.85;59.85
16690;BME280;8458;52.220;9.884;2023-04-25T09:00:39;100246.13;;;9.06;59.84
16690;BME280;8458;52.220;9.884;2023-04-25T09:03:05;100239.53;;;9.12;58.40
16690;BME280;8458;52.220;9.884;2023-04-25T09:05:35;100250.00;;;9.10;58.22
16690;BME280;8458;52.220;9.884;2023-04-25T09:08:01;100258.47;;;8.93;58.44
16690;BME280;8458;52.220;9.884;2023-04-25T09:10:28;100268.00;;;8.75;58.58
16690;BME280;8458;52.220;9.884;2023-04-25T09:13:05;100259.75;;;8.53;58.85
16690;BME280;8458;52.220;9.884;2023-04-25T09:15:47;100266.59;;;8.46;59.64
16690;BME280;8458;52.220;9.884;2023-04-25T09:18:14;100270.06;;;8.36;60.22
16690;BME280;8458;52.220;9.884;2023-04-25T09:20:49;100286.25;;;8.27;61.94
16690;BME280;8458;52.220;9.884;2023-04-25T09:23:15;100291.09;;;8.15;62.88
16690;BME280;8458;52.220;9.884;2023-04-25T09:25:42;100296.25;;;8.06;63.09
16690;BME280;8458;52.220;9.884;2023-04-25T09:28:08;100298.16;;;8.05;63.94
16690;BME280;8458;52.220;9.884;2023-04-25T09:30:36;100293.66;;;7.99;64.24
16690;BME280;8458;52.220;9.884;2023-04-25T09:33:06;100300.34;;;8.03;65.02
16690;BME280;8458;52.220;9.884;2023-04-25T09:35:37;100302.66;;;8.12;64.66
16690;BME280;8458;52.220;9.884;2023-04-25T09:38:10;100301.88;;;8.38;65.36
16690;BME280;8458;52.220;9.884;2023-04-25T09:40:41;100302.47;;;8.68;64.94
16690;BME280;8458;52.220;9.884;2023-04-25T09:43:10;100293.31;;;8.94;62.32
16690;BME280;8458;52.220;9.884;2023-04-25T09:45:44;100301.28;;;9.23;59.72
16690;BME280;8458;52.220;9.884;2023-04-25T09:48:16;100297.91;;;9.54;60.33
16690;BME280;8458;52.220;9.884;2023-04-25T09:50:43;100309.00;;;9.59;55.25
16690;BME280;8458;52.220;9.884;2023-04-25T09:53:11;100304.13;;;9.81;54.32
16690;BME280;8458;52.220;9.884;2023-04-25T09:55:38;100291.78;;;9.99;52.77
16690;BME280;8458;52.220;9.884;2023-04-25T09:58:06;100304.16;;;9.86;50.89
16690;BME280;8458;52.220;9.884;2023-04-25T10:00:33;100304.41;;;9.80;51.82
16690;BME280;8458;52.220;9.884;2023-04-25T10:03:01;100304.94;;;9.77;51.68
16690;BME280;8458;52.220;9.884;2023-04-25T10:05:32;100306.19;;;9.54;51.78
16690;BME280;8458;52.220;9.884;2023-04-25T10:08:02;100309.31;;;9.62;50.23
16690;BME280;8458;52.220;9.884;2023-04-25T10:10:32;100311.72;;;9.48;49.93
16690;BME280;8458;52.220;9.884;2023-04-25T10:13:03;100314.16;;;9.45;50.69
16690;BME280;8458;52.220;9.884;2023-04-25T10:15:30;100313.75;;;9.26;50.08
16690;BME280;8458;52.220;9.884;2023-04-25T10:17:58;100308.03;;;9.38;50.99
16690;BME280;8458;52.220;9.884;2023-04-25T10:20:25;100301.84;;;9.68;51.61
16690;BME280;8458;52.220;9.884;2023-04-25T10:22:54;100311.38;;;9.87;51.25
16690;BME280;8458;52.220;9.884;2023-04-25T10:25:22;100315.78;;;9.83;51.17
16690;BME280;8458;52.220;9.884;2023-04-25T10:27:51;100309.69;;;9.86;50.45
16690;BME280;8458;52.220;9.884;2023-04-25T10:30:18;100310.84;;;9.91;50.71
16690;BME280;8458;52.220;9.884;2023-04-25T10:32:45;100312.16;;;9.78;49.06
16690;BME280;8458;52.220;9.884;2023-04-25T10:35:13;100316.56;;;9.74;50.04
16690;BME280;8458;52.220;9.884;2023-04-25T10:37:57;100314.03;;;9.67;50.12
16690;BME280;8458;52.220;9.884;2023-04-25T10:40:24;100327.28;;;9.60;49.91
16690;BME280;8458;52.220;9.884;2023-04-25T10:42:53;100333.25;;;9.41;50.30
16690;BME280;8458;52.220;9.884;2023-04-25T10:45:20;100334.28;;;9.30;51.04
16690;BME280;8458;52.220;9.884;2023-04-25T10:47:46;100330.09;;;9.27;52.35
16690;BME280;8458;52.220;9.884;2023-04-25T10:50:14;100333.41;;;9.29;53.55
16690;BME280;8458;52.220;9.884;2023-04-25T10:52:41;100335.84;;;9.21;53.98
16690;BME280;8458;52.220;9.884;2023-04-25T10:55:08;100335.84;;;9.21;54.72
16690;BME280;8458;52.220;9.884;2023-04-25T10:57:40;100344.31;;;9.09;55.67
16690;BME280;8458;52.220;9.884;2023-04-25T11:00:11;100337.25;;;8.91;55.69
16690;BME280;8458;52.220;9.884;2023-04-25T11:02:41;100335.81;;;8.83;57.08
16690;BME280;8458;52.220;9.884;2023-04-25T11:05:10;100343.50;;;8.81;56.44
16690;BME280;8458;52.220;9.884;2023-04-25T11:07:45;100345.41;;;8.75;57.70
16690;BME280;8458;52.220;9.884;2023-04-25T11:10:15;100341.34;;;8.83;59.22
16690;BME280;8458;52.220;9.884;2023-04-25T11:12:41;100340.31;;;8.94;59.12
16690;BME280;8458;52.220;9.884;2023-04-25T11:15:10;100338.91;;;8.92;57.99
16690;BME280;8458;52.220;9.884;2023-04-25T11:17:36;100353.31;;;8.94;59.06
16690;BME280;8458;52.220;9.884;2023-04-25T11:20:05;100355.03;;;9.00;59.38
16690;BME280;8458;52.220;9.884;2023-04-25T11:22:37;100349.03;;;9.08;59.15
16690;BME280;8458;52.220;9.884;2023-04-25T11:25:05;100352.34;;;9.10;58.22
16690;BME280;8458;52.220;9.884;2023-04-25T11:27:32;100358.94;;;9.04;58.14
16690;BME280;8458;52.220;9.884;2023-04-25T11:29:58;100362.19;;;8.96;58.54
16690;BME280;8458;52.220;9.884;2023-04-25T11:32:27;100358.84;;;8.94;59.37
16690;BME280;8458;52.220;9.884;2023-04-25T11:34:53;100356.88;;;8.89;59.46
16690;BME280;8458;52.220;9.884;2023-04-25T11:37:20;100369.53;;;9.12;59.20
16690;BME280;8458;52.220;9.884;2023-04-25T11:39:46;100370.34;;;9.45;59.38
16690;BME280;8458;52.220;9.884;2023-04-25T11:42:13;100361.03;;;9.62;58.47
16690;BME280;8458;52.220;9.884;2023-04-25T11:44:40;100361.53;;;9.48;55.06
16690;BME280;8458;52.220;9.884;2023-04-25T11:47:06;100364.22;;;9.38;55.29
16690;BME280;8458;52.220;9.884;2023-04-25T11:49:35;100359.69;;;9.27;55.76
16690;BME280;8458;52.220;9.884;2023-04-25T11:52:01;100364.69;;;9.30;56.65
16690;BME280;8458;52.220;9.884;2023-04-25T11:54:28;100372.69;;;9.26;56.29
16690;BME280;8458;52.220;9.884;2023-04-25T11:56:54;100378.97;;;9.17;56.22
16690;BME280;8458;52.220;9.884;2023-04-25T11:59:23;100370.09;;;9.14;57.51
16690;BME280;8458;52.220;9.884;2023-04-25T12:01:50;100377.72;;;9.02;56.05
16690;BME280;8458;52.220;9.884;2023-04-25T12:04:18;100381.38;;;8.81;56.60
16690;BME280;8458;52.220;9.884;2023-04-25T12:06:47;100386.19;;;8.63;59.02
16690;BME280;8458;52.220;9.884;2023-04-25T12:09:15;100393.88;;;8.61;60.95
16690;BME280;8458;52.220;9.884;2023-04-25T12:11:43;100413.28;;;8.44;62.61
16690;BME280;8458;52.220;9.884;2023-04-25T12:14:11;100413.25;;;8.22;64.68
16690;BME280;8458;52.220;9.884;2023-04-25T12:16:41;100408.09;;;8.08;65.47
16690;BME280;8458;52.220;9.884;2023-04-25T12:19:08;100403.25;;;8.16;66.27
16690;BME280;8458;52.220;9.884;2023-04-25T12:21:35;100399.75;;;8.03;65.88
16690;BME280;8458;52.220;9.884;2023-04-25T12:24:14;100406.75;;;8.11;66.66
16690;BME280;8458;52.220;9.884;2023-04-25T12:26:48;100401.69;;;8.25;66.48
16690;BME280;8458;52.220;9.884;2023-04-25T12:29:17;100402.66;;;8.36;64.28
16690;BME280;8458;52.220;9.884;2023-04-25T12:31:43;100401.47;;;8.49;64.73
16690;BME280;8458;52.220;9.884;2023-04-25T12:34:10;100401.97;;;8.46;61.76
16690;BME280;8458;52.220;9.884;2023-04-25T12:36:36;100406.56;;;8.57;62.32
16690;BME280;8458;52.220;9.884;2023-04-25T12:39:03;100405.88;;;8.72;61.11
16690;BME280;8458;52.220;9.884;2023-04-25T12:41:31;100394.97;;;9.09;61.43
16690;BME280;8458;52.220;9.884;2023-04-25T12:43:58;100402.69;;;9.40;61.00
16690;BME280;8458;52.220;9.884;2023-04-25T12:46:24;100400.94;;;9.66;57.30
16690;BME280;8458;52.220;9.884;2023-04-25T12:48:51;100405.00;;;9.91;54.26
16690;BME280;8458;52.220;9.884;2023-04-25T12:51:17;100408.41;;;10.03;50.86
16690;BME280;8458;52.220;9.884;2023-04-25T12:53:44;100401.50;;;10.11;49.13
16690;BME280;8458;52.220;9.884;2023-04-25T12:56:10;100398.22;;;10.19;50.01
16690;BME280;8458;52.220;9.884;2023-04-25T12:58:38;100402.38;;;10.16;48.43
16690;BME280;8458;52.220;9.884;2023-04-25T13:01:05;100412.63;;;10.16;48.68
16690;BME280;8458;52.220;9.884;2023-04-25T13:03:32;100407.59;;;10.08;49.24
16690;BME280;8458;52.220;9.884;2023-04-25T13:05:59;100405.66;;;10.08;50.04
16690;BME280;8458;52.220;9.884;2023-04-25T13:08:25;100406.78;;;10.12;49.96
16690;BME280;8458;52.220;9.884;2023-04-25T13:10:52;100426.38;;;10.00;51.23
16690;BME280;8458;52.220;9.884;2023-04-25T13:13:18;100417.22;;;9.95;51.77